テルアビブ / ベン・グリオン の空港の天気 - METARとTAF

ベン・グリオン国際空港(テルアビブ) ( LLBG / TLV ) - イスラエル ロード / テルアビブ
飛行場実況気象(Metar)
観測時間04/27 07:50 IDT (04/27 04:50 UTC)
風向・風速不定 1m/s
視程10km以上
天気現象
なし
気温15℃
湿度88%
気圧1009hPa
METARLLBG 270450Z VRB02KT CAVOK 15/13 Q1009 NOSIG
過去の天気等 Google飛行場航空写真 Wunderground天気予報

過去48時間のMETAR

飛行場予報(TAF)
発表時間: 4/27 02:01 IDT (4/26 23:01 UTC)
予報対象時間: 27日3時 IDT ~ 28日3時 IDT
風向・風速東南東 2m/s
視程10km以上
少しの雲 雲底高度 460m
27日10時 IDT ~ 27日12時 IDT に徐々に
風向・風速西北西 5m/s
少しの雲 雲底高度 910m
27日18時 IDT ~ 27日20時 IDT に徐々に
風向・風速南 3m/s
視程10km以上
全天の4割程度の雲 雲底高度 760m
27日20時 IDT から 確率 30% で
風向・風速不定 8m/s
視程8,000m
天気現象
少しの積乱雲 雲底高度 760m
全天の8割程度の雲 雲底高度 910m
TAF LLBG 262301Z 2700/2724 12004KT 9999 FEW015
BECMG 2707/2709 29010KT FEW030
BECMG 2715/2717 18006KT 9999 SCT025
PROB30 2717/2724 VRB15KT 8000 RA FEW025CB BKN030 TX23/2712Z TN15/2704Z